Roswell, GA

5:31 PM EDT on August 25, 2016 (GMT -0400)
Roswell/Marietta/E. Cobb | | Change Station

Elev 1071 ft 34.04 °N, 84.41 °W | Updated 0 second ago

Mostly Cloudy
Mostly Cloudy
87.8 °F
Feels Like 93 °F
N
0.0
Wind Variable Wind from East
Gusts 1.2 mph

Today
High -- | Low -- °F
--% Chance of Precip.
Yesterday
High -- | Low -- °F
Precip. -- in
Pressure 30.09 in
Visibility 10.0 miles
Clouds Scattered Clouds 5500 ft
Mostly Cloudy 25000 ft
Heat Index 93 °F
Dew Point 70 °F
Humidity 55%
Rainfall 0.00 in
Snow Depth Not available.
7:06 AM 8:11 PM
Last Quarter, 42% visible
METAR KMGE 252058Z VRB03KT 10SM SCT055 BKN250 33/21 A3012 RMK AO2A SLP189 T03260207 57020 $
Pressure 30.09 in
Visibility 10.0 miles
Clouds Scattered Clouds 5500 ft
Mostly Cloudy 25000 ft
Heat Index 93 °F
Dew Point 70 °F
Humidity 55%
Rainfall 0.00 in
Snow Depth Not available.
7:06 AM 8:11 PM
Last Quarter, 42% visible
METAR KMGE 252058Z VRB03KT 10SM SCT055 BKN250 33/21 A3012 RMK AO2A SLP189 T03260207 57020 $
A tropical disturbance pushing toward the Bahamas, is expected to develop into a tropical depression or storm, and will likely target Florida and the Gulf Coast this weekend into next week.

Right now, the disturbance remains a broad area of low pressure pushing through the Dominican Republic and Haiti, headed toward the southeast Bahamas. Rainfall totals over 3 inches (with locally higher amounts) are expected in HispaƱiola, particularly over elevated terrain.

10-Day Weather Forecast

Almanac

Astronomy

Aug. 25, 2016 Rise Set
Actual Time
Civil Twilight
Nautical Twilight
Astronomical Twilight
Moon
Length of Visible Light
Length of Day
Tomorrow will be .
, % of the Moon is Illuminated

Today's Extremes

State Highs State Lows

Community

WunderPhotos

Upload Photos

1,934,943 photos uploaded!

WunderBlog® & News

Nearby

Air Quality

  Air Quality AQ Index Pollutant
Not available.

Snow Depth

Station Depth Elevation

Earthquake Activity

City Distance Mag. Time & Date
Minimum magnitude displayed is 2.5.

Coastal Water Temperatures

Place Temperature

Stations

Nearby Weather Stations

Station Location Temp. Windchill Dew Point Humidity Wind Precip. Elev Updated Type
                   

Watches & Warnings

There are currently no watches in effect.